Terminal Aerodrome Forecast
Issued by NWS

Home | Current Version | Previous Version | Text Only | Print | Product List | Glossary On
Versions: 1 2 3 4 5 6 7 8 9 10 11 12 13 14
659
FTUS46 KSTO 241735
TAFRDD
TAF
KRDD 241735Z 2418/2518 VRB05KT P6SM SCT060 BKN200
     FM242100 18007KT P6SM VCSH BKN050
     FM250400 VRB04KT P6SM BKN050=

USA.gov is the U.S. government's official web portal to all federal, state and local government web resources and services.